createdAt,value
2018-06-09T00:00:53.691Z,6.23
2018-06-09T00:03:21.271Z,5.67
2018-06-09T00:05:48.904Z,5.90
2018-06-09T00:08:16.488Z,5.77
2018-06-09T00:10:44.073Z,5.87
2018-06-09T00:13:11.646Z,6.33
2018-06-09T00:15:39.217Z,6.73
2018-06-09T00:18:06.798Z,6.03
2018-06-09T00:20:34.364Z,6.43
2018-06-09T00:23:01.945Z,6.17
2018-06-09T00:25:29.505Z,6.70
2018-06-09T00:27:57.105Z,5.50
2018-06-09T00:30:24.694Z,5.07
2018-06-09T00:32:52.281Z,4.50
2018-06-09T00:35:19.902Z,5.30
2018-06-09T00:37:47.490Z,4.70
2018-06-09T00:40:15.073Z,6.13
2018-06-09T00:42:42.656Z,5.33
2018-06-09T00:45:10.221Z,5.37
2018-06-09T00:47:37.787Z,5.00
2018-06-09T00:50:05.379Z,5.20
2018-06-09T00:52:32.957Z,5.40
2018-06-09T00:55:00.558Z,6.20
2018-06-09T00:57:28.149Z,5.60
2018-06-09T00:59:55.723Z,5.60
2018-06-09T01:02:23.293Z,5.37
2018-06-09T01:04:50.900Z,4.97
2018-06-09T01:07:18.513Z,5.10
2018-06-09T01:09:46.098Z,5.30
2018-06-09T01:12:13.687Z,5.30
2018-06-09T01:14:41.262Z,4.87
2018-06-09T01:17:08.821Z,4.17
2018-06-09T01:19:36.440Z,5.30
2018-06-09T01:22:04.013Z,4.77
2018-06-09T01:24:31.621Z,5.43
2018-06-09T01:26:59.222Z,4.97
2018-06-09T01:29:26.831Z,5.13
2018-06-09T01:31:54.441Z,4.57
2018-06-09T01:34:22.031Z,4.47
2018-06-09T01:36:49.602Z,4.60
2018-06-09T01:39:17.154Z,5.10
2018-06-09T01:41:44.720Z,4.83
2018-06-09T01:44:12.289Z,5.17
2018-06-09T01:46:39.863Z,5.17
2018-06-09T01:49:07.424Z,4.57
2018-06-09T01:51:34.996Z,5.53
2018-06-09T01:54:02.541Z,5.50
2018-06-09T01:56:30.143Z,4.60
2018-06-09T01:58:57.730Z,5.40
2018-06-09T02:01:25.327Z,5.17
2018-06-09T02:03:52.918Z,5.23
2018-06-09T02:06:20.499Z,5.43
2018-06-09T02:08:48.076Z,5.27
2018-06-09T02:11:15.653Z,5.00
2018-06-09T02:13:43.240Z,4.83
2018-06-09T02:16:10.824Z,4.17
2018-06-09T02:18:38.355Z,5.60
2018-06-09T02:21:05.983Z,4.70
2018-06-09T02:23:33.574Z,6.17
2018-06-09T02:26:01.127Z,5.13
2018-06-09T02:28:28.692Z,4.90
2018-06-09T02:30:56.300Z,5.20
2018-06-09T02:33:23.895Z,4.23
2018-06-09T02:35:51.455Z,4.80
2018-06-09T02:38:19.031Z,4.77
2018-06-09T02:40:46.620Z,4.70
2018-06-09T02:43:14.226Z,5.57
2018-06-09T02:45:41.786Z,4.60
2018-06-09T02:48:09.342Z,4.67
2018-06-09T02:50:36.943Z,6.13
2018-06-09T02:53:04.543Z,5.00
2018-06-09T02:55:32.125Z,4.77
2018-06-09T02:57:59.693Z,5.53
2018-06-09T03:00:27.267Z,4.83
2018-06-09T03:02:54.841Z,4.80
2018-06-09T03:05:22.428Z,5.03
2018-06-09T03:07:50.049Z,5.40
2018-06-09T03:10:17.603Z,4.87
2018-06-09T03:12:45.205Z,4.53
2018-06-09T03:15:12.768Z,6.10
2018-06-09T03:17:40.316Z,5.00
2018-06-09T03:20:07.912Z,4.77
2018-06-09T03:22:35.500Z,4.93
2018-06-09T03:25:03.079Z,4.97
2018-06-09T03:27:30.675Z,4.97
2018-06-09T03:29:58.273Z,6.10
2018-06-09T03:32:25.841Z,7.17
2018-06-09T03:34:53.413Z,7.93
2018-06-09T03:37:20.996Z,7.40
2018-06-09T03:39:48.570Z,9.43
2018-06-09T03:42:16.136Z,8.13
2018-06-09T03:44:43.773Z,8.30
2018-06-09T03:47:11.380Z,7.50
2018-06-09T03:49:38.990Z,6.90
2018-06-09T03:52:06.569Z,6.40
2018-06-09T03:54:34.156Z,5.67
2018-06-09T03:57:01.769Z,4.90
2018-06-09T03:59:29.363Z,4.47
2018-06-09T04:01:56.957Z,4.60
2018-06-09T04:04:24.530Z,5.50
2018-06-09T04:06:52.157Z,4.83
2018-06-09T04:09:19.740Z,4.33
2018-06-09T04:11:47.335Z,5.27
2018-06-09T04:14:14.899Z,4.53
2018-06-09T04:16:45.708Z,5.80
2018-06-09T04:19:13.300Z,5.47
2018-06-09T04:21:40.916Z,8.80
2018-06-09T04:24:08.519Z,8.50
2018-06-09T04:26:36.128Z,9.43
2018-06-09T04:29:03.737Z,8.37
2018-06-09T04:31:31.303Z,7.73
2018-06-09T04:33:58.911Z,8.13
2018-06-09T04:36:26.509Z,7.97
2018-06-09T04:38:54.112Z,8.10
2018-06-09T04:41:21.700Z,7.93
2018-06-09T04:43:49.299Z,9.00
2018-06-09T04:46:16.853Z,9.00
2018-06-09T04:48:44.421Z,7.40
2018-06-09T04:51:12.021Z,8.83
2018-06-09T04:53:39.626Z,7.83
2018-06-09T04:56:07.211Z,7.70
2018-06-09T04:58:34.821Z,8.97
2018-06-09T05:01:02.386Z,8.33
2018-06-09T05:03:29.980Z,8.80
2018-06-09T05:05:57.564Z,8.90
2018-06-09T05:08:25.145Z,8.67
2018-06-09T05:10:52.718Z,8.67
2018-06-09T05:13:20.313Z,9.03
2018-06-09T05:15:47.919Z,8.50
2018-06-09T05:18:15.542Z,10.83
2018-06-09T05:20:43.120Z,9.50
2018-06-09T05:23:10.691Z,9.10
2018-06-09T05:25:38.312Z,7.27
2018-06-09T05:28:05.907Z,8.43
2018-06-09T05:30:33.510Z,8.07
2018-06-09T05:33:01.116Z,9.80
2018-06-09T05:35:28.728Z,8.90
2018-06-09T05:37:56.325Z,9.37
2018-06-09T05:40:23.895Z,8.40
2018-06-09T05:42:51.453Z,8.40
2018-06-09T05:45:19.048Z,7.90
2018-06-09T05:47:46.636Z,7.57
2018-06-09T05:50:14.252Z,8.07
2018-06-09T05:52:41.839Z,7.57
2018-06-09T05:55:09.398Z,8.93
2018-06-09T05:57:36.979Z,8.53
2018-06-09T06:00:05.045Z,8.80
2018-06-09T06:02:32.640Z,11.40
2018-06-09T06:05:00.207Z,9.97
2018-06-09T06:07:27.771Z,10.10
2018-06-09T06:09:55.354Z,9.43
2018-06-09T06:12:22.949Z,8.43
2018-06-09T06:14:50.548Z,9.20
2018-06-09T06:17:18.111Z,9.17
2018-06-09T06:19:45.670Z,8.10
2018-06-09T06:22:13.254Z,8.07
2018-06-09T06:24:40.854Z,7.97
2018-06-09T06:27:08.452Z,7.90
2018-06-09T06:29:36.019Z,7.27
2018-06-09T06:32:03.680Z,7.23
2018-06-09T06:34:31.259Z,7.37
2018-06-09T06:36:58.887Z,7.43
2018-06-09T06:39:26.499Z,7.50
2018-06-09T06:41:54.084Z,7.63
2018-06-09T06:44:21.726Z,8.30
2018-06-09T06:46:49.324Z,7.20
2018-06-09T06:49:16.930Z,7.73
2018-06-09T06:51:44.536Z,7.80
2018-06-09T06:54:12.140Z,7.90
2018-06-09T06:56:39.758Z,7.60
2018-06-09T06:59:07.390Z,7.40
2018-06-09T07:01:35.004Z,8.37
2018-06-09T07:04:02.849Z,7.80
2018-06-09T07:06:30.493Z,7.30
2018-06-09T07:08:58.110Z,7.53
2018-06-09T07:11:25.692Z,7.80
2018-06-09T07:13:53.298Z,6.40
2018-06-09T07:16:20.860Z,6.70
2018-06-09T07:18:48.435Z,7.03
2018-06-09T07:21:16.045Z,6.90
2018-06-09T07:23:43.629Z,7.30
2018-06-09T07:26:11.249Z,7.20
2018-06-09T07:28:38.855Z,6.60
2018-06-09T07:31:06.460Z,6.17
2018-06-09T07:33:34.033Z,6.23
2018-06-09T07:36:01.642Z,5.93
2018-06-09T07:38:29.228Z,5.30
2018-06-09T07:40:56.816Z,4.87
2018-06-09T07:43:24.422Z,5.50
2018-06-09T07:45:52.021Z,5.50
2018-06-09T07:48:19.625Z,5.37
2018-06-09T07:50:47.186Z,5.20
2018-06-09T07:53:14.739Z,5.03
2018-06-09T07:55:42.320Z,4.90
2018-06-09T07:58:09.894Z,4.90
2018-06-09T08:00:37.473Z,5.40
2018-06-09T08:03:05.088Z,5.63
2018-06-09T08:05:32.671Z,5.10
2018-06-09T08:08:00.254Z,5.23
2018-06-09T08:10:27.847Z,4.50
2018-06-09T08:12:55.425Z,4.53
2018-06-09T08:16:10.599Z,4.77
2018-06-09T09:12:47.832Z,3.97
2018-06-09T09:15:15.392Z,4.43
2018-06-09T09:17:42.988Z,4.03
2018-06-09T09:20:10.543Z,4.37
2018-06-09T09:22:38.121Z,3.70
2018-06-09T09:25:05.718Z,3.40
2018-06-09T09:27:33.377Z,3.40
2018-06-09T09:30:00.950Z,2.87
2018-06-09T09:32:28.536Z,3.33
2018-06-09T09:34:56.161Z,3.50
2018-06-09T09:37:23.757Z,3.20
2018-06-09T09:39:51.327Z,4.00
2018-06-09T09:42:18.917Z,3.77
2018-06-09T09:44:46.517Z,3.70
2018-06-09T09:47:14.130Z,3.77
2018-06-09T09:49:41.706Z,3.40
2018-06-09T09:52:09.275Z,3.00
2018-06-09T09:54:36.915Z,3.80
2018-06-09T09:57:04.510Z,3.00
2018-06-09T09:59:32.074Z,3.70
2018-06-09T10:01:59.692Z,2.97
2018-06-09T10:04:27.297Z,3.30
2018-06-09T10:06:54.911Z,3.33
2018-06-09T10:09:22.548Z,3.17
2018-06-09T10:11:50.126Z,3.13
2018-06-09T10:14:17.688Z,3.40
2018-06-09T10:16:45.271Z,4.10
2018-06-09T10:19:12.949Z,3.43
2018-06-09T10:21:40.593Z,3.67
2018-06-09T10:24:08.193Z,3.73
2018-06-09T10:26:35.798Z,3.50
2018-06-09T10:29:03.393Z,3.00
2018-06-09T10:31:30.997Z,3.10
2018-06-09T10:33:58.619Z,3.00
2018-06-09T10:36:26.201Z,3.40
2018-06-09T10:38:53.793Z,3.57
2018-06-09T10:41:21.345Z,3.33
2018-06-09T10:43:48.920Z,3.87
2018-06-09T10:46:16.460Z,3.57
2018-06-09T10:48:44.164Z,3.53
2018-06-09T10:51:11.785Z,3.93
2018-06-09T10:53:39.380Z,3.50
2018-06-09T10:56:06.986Z,3.20
2018-06-09T10:58:34.589Z,3.37
2018-06-09T11:01:02.210Z,4.20
2018-06-09T11:03:29.823Z,3.50
2018-06-09T11:05:57.397Z,3.60
2018-06-09T11:08:25.012Z,3.70
2018-06-09T11:10:52.633Z,3.90
2018-06-09T11:13:20.245Z,3.43
2018-06-09T11:15:47.816Z,3.77
2018-06-09T11:18:15.441Z,3.73
2018-06-09T11:20:43.048Z,3.63
2018-06-09T11:23:10.627Z,4.00
2018-06-09T11:25:38.207Z,3.90
2018-06-09T11:28:05.781Z,4.30
2018-06-09T11:30:33.345Z,4.70
2018-06-09T11:33:00.938Z,4.40
2018-06-09T11:35:28.524Z,3.90
2018-06-09T11:37:56.113Z,4.50
2018-06-09T11:40:23.701Z,4.43
2018-06-09T11:42:51.333Z,4.23
2018-06-09T11:45:18.888Z,3.90
2018-06-09T11:47:46.446Z,4.10
2018-06-09T11:50:14.021Z,4.30
2018-06-09T11:52:41.569Z,4.20
2018-06-09T11:55:09.153Z,4.77
2018-06-09T11:57:36.746Z,4.10
2018-06-09T12:00:04.537Z,3.93
2018-06-09T12:02:32.093Z,4.03
2018-06-09T12:04:59.661Z,4.30
2018-06-09T12:07:27.226Z,4.40
2018-06-09T12:09:54.792Z,4.47
2018-06-09T12:12:22.427Z,3.73
2018-06-09T12:14:50.131Z,3.20
2018-06-09T12:17:17.744Z,4.10
2018-06-09T12:19:45.294Z,3.00
2018-06-09T12:22:13.021Z,3.70
2018-06-09T12:24:40.586Z,3.33
2018-06-09T12:27:08.167Z,2.77
2018-06-09T12:29:35.743Z,3.60
2018-06-09T12:32:03.332Z,3.03
2018-06-09T12:34:30.906Z,3.53
2018-06-09T12:36:58.481Z,4.00
2018-06-09T12:39:26.109Z,2.83
2018-06-09T12:41:53.832Z,3.43
2018-06-09T12:44:21.438Z,3.13
2018-06-09T12:46:49.089Z,3.20
2018-06-09T12:49:16.688Z,3.77
2018-06-09T12:51:45.182Z,4.20
2018-06-09T12:54:12.867Z,3.40
2018-06-09T12:56:40.453Z,3.87
2018-06-09T12:59:08.037Z,3.33
2018-06-09T13:01:35.675Z,3.23
2018-06-09T13:04:03.239Z,3.70
2018-06-09T13:06:30.850Z,3.57
2018-06-09T13:08:58.454Z,3.37
2018-06-09T13:11:26.060Z,3.90
2018-06-09T13:13:53.636Z,3.50
2018-06-09T13:16:21.216Z,3.97
2018-06-09T13:18:48.791Z,3.90
2018-06-09T13:21:16.405Z,3.70
2018-06-09T13:23:44.025Z,3.63
2018-06-09T13:26:11.606Z,3.47
2018-06-09T13:28:39.474Z,4.07
2018-06-09T13:31:07.132Z,3.77
2018-06-09T13:33:34.752Z,3.90
2018-06-09T13:36:02.409Z,4.10
2018-06-09T13:38:29.955Z,3.27
2018-06-09T13:40:57.537Z,4.03
2018-06-09T13:43:25.132Z,3.10
2018-06-09T13:45:52.717Z,3.00
2018-06-09T13:48:20.297Z,3.60
2018-06-09T13:50:47.898Z,3.63
2018-06-09T13:53:15.506Z,3.27
2018-06-09T13:55:43.105Z,3.20
2018-06-09T13:58:10.676Z,3.57
2018-06-09T14:00:38.239Z,3.30
2018-06-09T14:03:05.897Z,3.87
2018-06-09T14:05:33.496Z,2.90
2018-06-09T14:08:01.101Z,4.13
2018-06-09T14:10:28.704Z,3.80
2018-06-09T14:12:56.298Z,3.57
2018-06-09T14:15:23.854Z,3.90
2018-06-09T14:17:51.459Z,3.90
2018-06-09T14:20:19.047Z,3.93
2018-06-09T14:22:46.677Z,4.00
2018-06-09T14:25:14.289Z,3.60
2018-06-09T14:27:41.857Z,3.60
2018-06-09T14:30:09.472Z,3.60
2018-06-09T14:32:37.050Z,4.37
2018-06-09T14:35:04.651Z,3.50
2018-06-09T14:37:32.358Z,3.60
2018-06-09T14:39:59.971Z,3.70
2018-06-09T14:42:27.535Z,3.47
2018-06-09T14:44:55.127Z,3.27
2018-06-09T14:47:22.797Z,3.30
2018-06-09T14:49:50.397Z,3.70
2018-06-09T14:52:18.020Z,3.40
2018-06-09T14:54:45.581Z,3.80
2018-06-09T14:57:13.152Z,3.60
2018-06-09T14:59:40.726Z,3.20
2018-06-09T15:02:08.298Z,3.73
2018-06-09T15:04:35.942Z,3.40
2018-06-09T15:07:03.547Z,3.50
2018-06-09T15:09:31.165Z,3.67
2018-06-09T15:11:58.757Z,3.37
2018-06-09T15:14:26.312Z,3.50
2018-06-09T15:16:53.884Z,3.10
2018-06-09T15:19:21.447Z,3.53
2018-06-09T15:21:49.099Z,2.93
2018-06-09T15:24:16.743Z,3.53
2018-06-09T15:26:44.324Z,3.73
2018-06-09T15:29:11.941Z,3.83
2018-06-09T15:31:39.548Z,3.00
2018-06-09T15:34:07.176Z,3.63
2018-06-09T15:36:34.789Z,3.90
2018-06-09T15:39:02.396Z,4.00
2018-06-09T15:41:29.972Z,3.50
2018-06-09T15:43:57.674Z,3.80
2018-06-09T15:46:38.553Z,3.90
2018-06-09T15:52:46.852Z,3.73
2018-06-09T15:55:14.449Z,4.27
2018-06-09T16:00:21.820Z,3.80
2018-06-09T16:03:02.975Z,4.23
2018-06-09T16:12:12.771Z,3.93
2018-06-09T16:14:40.394Z,4.43
2018-06-09T16:17:14.375Z,3.83
2018-06-09T16:19:41.969Z,3.90
2018-06-09T16:22:09.544Z,3.97
2018-06-09T16:24:37.200Z,4.40
2018-06-09T16:27:04.827Z,4.63
2018-06-09T16:29:32.738Z,4.13
2018-06-09T16:32:00.401Z,3.93
2018-06-09T16:34:27.999Z,3.63
2018-06-09T16:36:55.608Z,3.53
2018-06-09T16:39:23.212Z,3.80
2018-06-09T16:41:50.876Z,4.20
2018-06-09T16:44:18.472Z,4.83
2018-06-09T16:46:46.154Z,3.70
2018-06-09T16:49:13.816Z,4.07
2018-06-09T16:51:41.448Z,4.20
2018-06-09T16:54:09.072Z,3.93
2018-06-09T16:56:36.724Z,3.80
2018-06-09T16:59:04.337Z,4.60
2018-06-09T17:01:31.993Z,4.40
2018-06-09T17:03:59.637Z,3.67
2018-06-09T17:06:27.241Z,4.50
2018-06-09T17:08:54.833Z,3.73
2018-06-09T17:11:22.445Z,4.70
2018-06-09T17:13:50.043Z,4.03
2018-06-09T17:16:17.720Z,4.23
2018-06-09T17:18:45.295Z,4.07
2018-06-09T17:21:12.925Z,4.10
2018-06-09T17:23:40.550Z,4.00
2018-06-09T17:26:08.181Z,4.10
2018-06-09T17:28:35.777Z,3.60
2018-06-09T17:31:03.427Z,3.80
2018-06-09T17:33:31.034Z,4.33
2018-06-09T17:35:58.670Z,3.97
2018-06-09T17:38:26.378Z,4.20
2018-06-09T17:40:54.042Z,4.13
2018-06-09T17:43:21.682Z,4.70
2018-06-09T17:45:49.333Z,4.67
2018-06-09T17:48:16.984Z,4.20
2018-06-09T17:50:44.629Z,4.70
2018-06-09T17:53:12.290Z,4.60
2018-06-09T17:55:39.904Z,4.70
2018-06-09T17:58:07.541Z,4.20
2018-06-09T18:00:35.225Z,4.07
2018-06-09T18:03:02.931Z,4.40
2018-06-09T18:05:30.604Z,3.97
2018-06-09T18:07:58.209Z,4.60
2018-06-09T18:10:25.892Z,4.20
2018-06-09T18:12:53.517Z,5.10
2018-06-09T18:15:21.269Z,4.30
2018-06-09T18:17:48.960Z,4.27
2018-06-09T18:20:16.605Z,4.00
2018-06-09T18:22:44.235Z,3.87
2018-06-09T18:25:11.940Z,4.37
2018-06-09T18:27:39.626Z,4.30
2018-06-09T18:30:07.607Z,3.97
2018-06-09T18:32:35.219Z,4.13
2018-06-09T18:35:02.834Z,5.03
2018-06-09T18:37:30.417Z,4.33
2018-06-09T18:39:58.126Z,4.20
2018-06-09T18:42:25.724Z,4.27
2018-06-09T18:44:53.364Z,3.90
2018-06-09T18:47:20.940Z,4.33
2018-06-09T18:49:48.687Z,4.67
2018-06-09T18:52:16.411Z,5.30
2018-06-09T18:54:44.009Z,4.60
2018-06-09T18:57:11.658Z,4.30
2018-06-09T18:59:39.232Z,4.13
2018-06-09T19:02:06.816Z,4.83
2018-06-09T19:04:34.427Z,4.70
2018-06-09T19:07:02.055Z,3.80
2018-06-09T19:09:29.645Z,4.90
2018-06-09T19:12:24.665Z,5.00
2018-06-09T19:15:08.034Z,4.40
2018-06-09T19:17:35.627Z,4.27
2018-06-09T19:20:03.283Z,4.03
2018-06-09T19:22:30.887Z,4.73
2018-06-09T19:24:58.443Z,4.53
2018-06-09T19:27:26.055Z,4.87
2018-06-09T19:29:53.702Z,4.83
2018-06-09T19:32:21.468Z,4.53
2018-06-09T19:34:49.119Z,4.40
2018-06-09T19:37:16.766Z,4.43
2018-06-09T19:39:44.377Z,4.40
2018-06-09T19:42:12.024Z,4.13
2018-06-09T19:44:39.608Z,3.43
2018-06-09T19:47:08.325Z,4.40
2018-06-09T19:49:36.711Z,4.17
2018-06-09T19:52:04.682Z,4.77
2018-06-09T19:54:32.751Z,3.63
2018-06-09T19:57:00.342Z,4.77
2018-06-09T19:59:28.011Z,4.60
2018-06-09T20:01:55.652Z,4.17
2018-06-09T20:04:23.252Z,4.13
2018-06-09T20:06:50.854Z,4.30
2018-06-09T20:09:18.423Z,4.20
2018-06-09T20:11:46.039Z,4.33
2018-06-09T20:14:13.633Z,4.63
2018-06-09T20:16:41.236Z,4.90
2018-06-09T20:19:08.830Z,4.90
2018-06-09T20:21:36.443Z,4.50
2018-06-09T20:24:04.770Z,4.70
2018-06-09T20:26:32.370Z,4.40
2018-06-09T20:28:59.960Z,3.97
2018-06-09T20:31:27.647Z,5.33
2018-06-09T20:33:55.220Z,4.97
2018-06-09T20:36:22.792Z,4.77
2018-06-09T20:38:50.441Z,4.80
2018-06-09T20:41:18.038Z,4.90
2018-06-09T20:43:45.620Z,5.83
2018-06-09T20:46:13.257Z,5.77
2018-06-09T20:48:40.876Z,5.80
2018-06-09T20:51:08.474Z,4.93
2018-06-09T20:53:36.181Z,5.10
2018-06-09T20:56:03.833Z,4.40
2018-06-09T20:58:36.709Z,5.10
2018-06-09T21:01:04.339Z,5.00
2018-06-09T21:03:31.913Z,5.00
2018-06-09T21:05:59.615Z,4.80
2018-06-09T21:08:27.137Z,4.83
2018-06-09T21:10:54.720Z,4.30
2018-06-09T21:13:22.340Z,5.23
2018-06-09T21:15:49.947Z,5.50
2018-06-09T21:18:17.544Z,5.80
2018-06-09T21:20:45.195Z,5.57
2018-06-09T21:23:12.780Z,5.10
2018-06-09T21:25:40.388Z,5.20
2018-06-09T21:28:12.733Z,5.63
2018-06-09T21:30:43.555Z,5.17
2018-06-09T21:33:15.728Z,4.97
2018-06-09T21:35:51.019Z,5.30
2018-06-09T21:38:22.899Z,5.20
2018-06-09T21:40:54.787Z,5.23
2018-06-09T21:43:25.424Z,5.80
2018-06-09T21:45:53.016Z,5.27
2018-06-09T21:48:20.858Z,5.27
2018-06-09T21:50:48.478Z,5.80
2018-06-09T21:53:16.067Z,5.77
2018-06-09T21:55:43.663Z,5.60
2018-06-09T21:58:11.226Z,5.40
2018-06-09T22:00:38.879Z,5.80
2018-06-09T22:03:06.483Z,5.60
2018-06-09T22:05:34.149Z,5.03
2018-06-09T22:08:01.746Z,5.60
2018-06-09T22:10:29.368Z,5.53
2018-06-09T22:12:57.064Z,4.93
2018-06-09T22:15:24.657Z,4.60
2018-06-09T22:17:52.276Z,5.00
2018-06-09T22:20:19.852Z,5.33
2018-06-09T22:22:47.451Z,5.07
2018-06-09T22:25:19.321Z,5.07
2018-06-09T22:27:46.945Z,5.47
2018-06-09T22:30:14.533Z,4.73
2018-06-09T22:32:42.261Z,5.13
2018-06-09T22:35:09.867Z,6.03
2018-06-09T22:37:37.444Z,5.47
2018-06-09T22:40:05.072Z,5.67
2018-06-09T22:42:32.672Z,5.67
2018-06-09T22:45:00.248Z,5.23
2018-06-09T22:47:27.821Z,6.07
2018-06-09T22:49:55.392Z,5.00
2018-06-09T22:52:22.971Z,5.07
2018-06-09T22:54:50.540Z,4.83
2018-06-09T22:57:18.118Z,5.00
2018-06-09T22:59:45.678Z,5.80
2018-06-09T23:02:13.285Z,5.70
2018-06-09T23:04:40.833Z,4.97
2018-06-09T23:07:08.407Z,6.10
2018-06-09T23:09:35.955Z,5.20
2018-06-09T23:12:03.538Z,5.20
2018-06-09T23:14:31.092Z,6.00
2018-06-09T23:16:58.676Z,5.83
2018-06-09T23:19:26.217Z,5.50
2018-06-09T23:21:53.780Z,5.17
2018-06-09T23:24:21.332Z,6.00
2018-06-09T23:26:48.896Z,5.10
2018-06-09T23:29:16.432Z,6.17
2018-06-09T23:31:43.992Z,5.10
2018-06-09T23:34:11.602Z,5.13
2018-06-09T23:36:39.167Z,5.13
2018-06-09T23:39:07.140Z,6.67
2018-06-09T23:41:34.728Z,5.97
2018-06-09T23:44:02.397Z,4.90
2018-06-09T23:46:29.963Z,5.53
2018-06-09T23:48:57.573Z,6.37
2018-06-09T23:51:25.149Z,5.87
2018-06-09T23:53:52.726Z,5.80
2018-06-09T23:56:20.312Z,6.87
2018-06-09T23:58:47.892Z,5.40
